Time;durP1;ratioP1;P1;durP2;ratioP2;P2;SDS_P1;SDS_P2;PMS_P1;PMS_P2;Temp;Humidity;BMP_temperature;BMP_pressure;BME280_temperature;BME280_humidity;BME280_pressure;Samples;Min_cycle;Max_cycle;Signal;HPM_P1;HPM_P2
2022/12/26 00:02:05;;;;;;;11.40;7.37;;;;;;;-0.15;87.41;96376.98;1795374;80;20998;-70
2022/12/26 00:04:32;;;;;;;15.03;9.80;;;;;;;-0.09;87.42;96375.49;1795175;80;21109;-70
2022/12/26 00:06:58;;;;;;;11.97;7.93;;;;;;;-0.01;87.33;96366.25;1795567;80;20986;-70
2022/12/26 00:09:25;;;;;;;11.87;6.50;;;;;;;0.08;87.25;96359.64;1795320;80;21461;-71
2022/12/26 00:11:51;;;;;;;11.80;6.23;;;;;;;0.13;87.13;96355.06;1795707;80;20979;-71
2022/12/26 00:14:17;;;;;;;11.27;5.90;;;;;;;0.19;87.00;96352.66;1795490;80;21042;-71
2022/12/26 00:16:46;;;;;;;13.13;6.47;;;;;;;0.30;87.42;96352.13;1795402;80;20979;-70
2022/12/26 00:19:13;;;;;;;14.63;6.73;;;;;;;0.32;86.82;96356.55;1795323;80;21075;-70
2022/12/26 00:21:39;;;;;;;12.27;8.17;;;;;;;0.31;87.20;96356.09;1795225;80;21512;-70
2022/12/26 00:24:06;;;;;;;13.67;7.50;;;;;;;0.37;87.36;96365.79;1795515;80;20997;-70
2022/12/26 00:26:34;;;;;;;12.77;7.03;;;;;;;0.45;87.40;96360.84;1795510;80;20983;-70
2022/12/26 00:29:01;;;;;;;14.00;9.60;;;;;;;0.51;87.34;96370.15;1795397;80;21457;-70
2022/12/26 00:31:31;;;;;;;13.73;8.77;;;;;;;0.50;86.50;96370.96;1795450;80;21040;-70
2022/12/26 00:33:59;;;;;;;14.30;9.27;;;;;;;0.38;87.10;96366.27;1795418;80;21461;-70
2022/12/26 00:36:30;;;;;;;23.73;12.23;;;;;;;0.36;87.53;96377.02;1795332;80;20994;-70
2022/12/26 00:38:59;;;;;;;37.83;17.20;;;;;;;0.36;87.36;96377.89;1795453;80;21457;-70
2022/12/26 00:41:27;;;;;;;36.33;15.57;;;;;;;0.34;87.32;96368.29;1795452;80;21029;-70
2022/12/26 00:43:54;;;;;;;7.67;3.87;;;;;;;0.40;87.35;96372.37;1795232;80;21014;-70
2022/12/26 00:46:24;;;;;;;6.87;2.80;;;;;;;0.50;87.53;96361.88;1795583;80;20986;-70
2022/12/26 00:48:50;;;;;;;4.17;2.87;;;;;;;0.60;87.55;96361.34;1795270;80;21018;-70
2022/12/26 00:51:18;;;;;;;3.83;2.10;;;;;;;0.70;87.97;96353.00;1795352;80;21014;-70
2022/12/26 00:53:45;;;;;;;6.67;4.30;;;;;;;0.77;87.65;96343.27;1792844;80;21134;-70
2022/12/26 00:56:11;;;;;;;8.60;4.17;;;;;;;0.75;86.99;96341.46;1787183;80;20999;-70
2022/12/26 00:58:40;;;;;;;13.03;6.37;;;;;;;0.76;87.16;96342.83;1787119;80;20999;-70
2022/12/26 01:01:17;;;;;;;17.77;8.23;;;;;;;0.75;87.31;96346.23;1787240;80;21011;-70
2022/12/26 01:03:45;;;;;;;13.00;5.20;;;;;;;0.82;87.71;96352.09;1786785;80;21029;-71
2022/12/26 01:06:13;;;;;;;18.00;8.50;;;;;;;0.84;87.18;96345.23;1787041;80;21059;-70
2022/12/26 01:08:39;;;;;;;33.97;16.90;;;;;;;0.84;87.33;96342.63;1787204;80;21010;-70
2022/12/26 01:11:11;;;;;;;33.27;14.60;;;;;;;0.86;87.31;96337.08;1787004;80;20999;-71
2022/12/26 01:13:37;;;;;;;33.03;16.17;;;;;;;0.92;87.71;96331.17;1787186;80;20963;-71
2022/12/26 01:16:05;;;;;;;37.10;16.03;;;;;;;1.00;87.64;96325.78;1787152;80;21003;-71
2022/12/26 01:18:33;;;;;;;29.63;13.90;;;;;;;1.02;87.20;96325.84;1786886;80;21005;-71
2022/12/26 01:21:04;;;;;;;31.70;15.20;;;;;;;1.11;87.56;96329.12;1787096;80;21043;-71
2022/12/26 01:23:31;;;;;;;26.47;11.60;;;;;;;1.21;87.78;96329.85;1787156;80;20983;-71
2022/12/26 01:25:57;;;;;;;13.37;5.63;;;;;;;1.30;87.75;96328.41;1786912;80;20995;-71
2022/12/26 01:28:24;;;;;;;12.53;5.67;;;;;;;1.32;86.89;96326.28;1787029;80;21027;-71
2022/12/26 01:30:50;;;;;;;8.30;4.10;;;;;;;1.27;86.78;96325.72;1787176;80;20998;-70
2022/12/26 01:33:17;;;;;;;8.83;4.70;;;;;;;1.24;86.34;96323.04;1786895;80;20963;-70
2022/12/26 01:35:51;;;;;;;6.00;3.63;;;;;;;1.17;85.93;96321.09;1786930;80;21015;-70
2022/12/26 01:38:19;;;;;;;8.67;4.80;;;;;;;1.14;86.35;96318.41;1787074;80;21077;-70
2022/12/26 01:40:47;;;;;;;14.10;6.07;;;;;;;1.20;87.36;96321.17;1787071;80;20990;-70
2022/12/26 01:43:16;;;;;;;15.13;6.87;;;;;;;1.28;87.06;96322.70;1787050;80;21042;-70
2022/12/26 01:45:48;;;;;;;3.73;1.90;;;;;;;1.21;86.38;96320.36;1786932;80;21022;-70
2022/12/26 01:48:21;;;;;;;4.23;2.20;;;;;;;1.17;86.74;96310.70;1787053;80;21011;-70
2022/12/26 01:50:55;;;;;;;6.00;3.73;;;;;;;1.16;86.98;96311.94;1787073;80;20987;-70
2022/12/26 01:53:48;;;;;;;4.80;2.10;;;;;;;1.13;87.17;96304.94;1787087;80;21010;-70
2022/12/26 01:56:20;;;;;;;1.67;1.13;;;;;;;1.04;86.65;96308.16;1787128;80;20995;-70
2022/12/26 01:58:54;;;;;;;4.53;2.10;;;;;;;1.04;87.15;96309.89;1754358;80;20964;-70
2022/12/26 02:01:25;;;;;;;4.17;2.00;;;;;;;1.00;87.22;96306.30;1786862;80;21480;-70
2022/12/26 02:06:40;;;;;;;17.87;9.13;;;;;;;0.88;87.56;96297.25;1787160;80;21083;-70
2022/12/26 02:09:08;;;;;;;6.30;2.33;;;;;;;0.91;87.55;96296.95;1787262;80;21487;-70
2022/12/26 02:11:38;;;;;;;4.03;2.03;;;;;;;0.93;87.31;96296.55;1787164;80;21007;-70
2022/12/26 02:14:07;;;;;;;6.63;2.03;;;;;;;0.95;87.53;96292.71;1787093;80;21545;-70
2022/12/26 02:16:37;;;;;;;29.60;12.83;;;;;;;0.97;87.80;96290.63;1787198;80;20999;-70
2022/12/26 02:19:08;;;;;;;9.23;4.43;;;;;;;1.01;88.03;96288.59;1787214;80;20990;-70
2022/12/26 02:21:55;;;;;;;9.87;5.00;;;;;;;1.12;88.23;96288.02;1787031;80;20975;-70
2022/12/26 02:25:02;;;;;;;6.30;3.20;;;;;;;1.12;87.39;96293.22;1714578;80;21007;-70
2022/12/26 02:27:58;;;;;;;4.83;2.60;;;;;;;1.12;87.62;96296.69;1704872;84;21059;-70
2022/12/26 02:30:42;;;;;;;3.50;2.10;;;;;;;1.18;87.97;96288.18;1703249;84;21087;-70
2022/12/26 02:33:35;;;;;;;4.50;2.50;;;;;;;1.19;88.05;96299.05;1815352;78;20995;-70
2022/12/26 02:36:30;;;;;;;3.95;2.20;;;;;;;1.28;88.30;96302.77;1831781;78;20996;-70
2022/12/26 02:39:20;;;;;;;3.53;2.13;;;;;;;1.31;88.29;96298.11;1831760;78;20992;-70
2022/12/26 02:42:07;;;;;;;7.37;3.60;;;;;;;1.25;87.60;96301.81;1831934;78;21020;-70
2022/12/26 02:48:07;;;;;;;21.53;12.43;;;;;;;1.31;88.56;96304.61;1774464;78;21067;-70
2022/12/26 03:15:21;;;;;;;9.57;4.20;;;;;;;1.25;88.36;96273.22;1831852;78;21015;-70
2022/12/26 03:17:53;;;;;;;13.73;6.33;;;;;;;1.25;88.25;96267.59;1831585;78;20988;-70
2022/12/26 03:20:33;;;;;;;12.20;6.97;;;;;;;1.28;88.33;96270.27;1830109;78;21540;-70
2022/12/26 03:23:11;;;;;;;14.57;8.70;;;;;;;1.30;88.43;96270.33;1831705;78;21022;-70
2022/12/26 03:28:43;;;;;;;9.37;5.80;;;;;;;1.30;87.58;96270.33;1831807;78;21027;-70
2022/12/26 03:31:13;;;;;;;7.10;4.43;;;;;;;1.35;88.31;96271.34;1831748;78;20995;-70
2022/12/26 03:36:34;;;;;;;7.33;3.70;;;;;;;1.36;87.91;96272.22;1831780;78;21027;-69
2022/12/26 04:44:26;;;;;;;8.57;4.80;;;;;;;1.52;88.43;96275.71;1795784;80;21003;-70
2022/12/26 04:46:55;;;;;;;9.73;5.00;;;;;;;1.49;88.56;96278.23;1795698;80;21010;-70
2022/12/26 04:52:10;;;;;;;8.73;4.53;;;;;;;1.53;88.61;96275.28;1795724;80;20990;-70
2022/12/26 04:54:37;;;;;;;12.50;6.57;;;;;;;1.50;88.38;96274.78;1794683;80;21129;-70
2022/12/26 04:57:04;;;;;;;14.83;7.60;;;;;;;1.53;88.95;96273.56;1787122;80;21465;-70
2022/12/26 04:59:31;;;;;;;8.53;5.60;;;;;;;1.53;88.82;96283.09;1787079;80;21015;-70
2022/12/26 05:10:21;;;;;;;9.43;4.67;;;;;;;1.79;89.34;96273.37;1787064;80;21469;-70
2022/12/26 05:12:48;;;;;;;12.13;5.97;;;;;;;1.83;89.05;96282.59;1784223;80;21030;-70
2022/12/26 05:15:15;;;;;;;15.90;7.47;;;;;;;1.86;88.88;96271.39;1787116;80;21022;-70
2022/12/26 05:28:58;;;;;;;7.80;4.17;;;;;;;1.78;88.77;96254.70;1787149;80;21480;-70
2022/12/26 05:31:25;;;;;;;8.90;4.00;;;;;;;1.82;89.00;96252.66;1786874;80;21037;-70
2022/12/26 05:34:04;;;;;;;7.30;3.13;;;;;;;1.90;89.20;96247.22;1786981;80;21530;-70
2022/12/26 05:36:36;;;;;;;7.27;3.23;;;;;;;1.93;88.95;96250.77;1786996;80;20991;-69
2022/12/26 05:39:04;;;;;;;4.93;2.53;;;;;;;1.94;88.60;96251.25;1787180;80;21063;-69
2022/12/26 05:41:31;;;;;;;10.93;4.90;;;;;;;1.95;87.83;96241.70;1787078;80;20998;-70
2022/12/26 05:43:57;;;;;;;26.03;12.77;;;;;;;1.99;88.07;96230.94;1787170;80;21456;-70
2022/12/26 05:46:24;;;;;;;34.23;17.47;;;;;;;1.96;86.08;96236.95;1786740;80;21064;-70
2022/12/26 05:48:51;;;;;;;38.83;20.13;;;;;;;1.94;85.82;96242.13;1787030;80;21465;-70
2022/12/26 05:51:18;;;;;;;18.53;10.23;;;;;;;1.96;86.20;96244.75;1786917;80;21062;-70
2022/12/26 05:53:45;;;;;;;18.23;9.70;;;;;;;1.97;85.66;96239.16;1786974;80;20990;-70
2022/12/26 05:56:17;;;;;;;10.37;6.30;;;;;;;1.99;86.16;96240.05;1792293;80;21026;-70
2022/12/26 05:58:44;;;;;;;24.77;12.77;;;;;;;1.98;85.56;96243.08;1795439;80;20990;-70
2022/12/26 06:01:17;;;;;;;20.33;11.40;;;;;;;2.03;85.99;96245.38;1795355;80;21018;-70
2022/12/26 06:03:51;;;;;;;21.23;12.45;;;;;;;2.02;85.73;96246.23;1795587;80;20970;-70
2022/12/26 06:06:19;;;;;;;18.40;11.27;;;;;;;1.97;85.28;96238.73;1795287;80;20979;-70
2022/12/26 06:08:51;;;;;;;20.93;12.07;;;;;;;1.94;85.65;96238.23;1795505;80;21058;-70
2022/12/26 06:11:18;;;;;;;13.40;6.97;;;;;;;1.95;85.34;96228.27;1795484;80;20998;-70
2022/12/26 06:13:44;;;;;;;13.27;7.10;;;;;;;1.95;85.43;96243.88;1795177;80;20974;-70
2022/12/26 06:16:15;;;;;;;10.87;6.93;;;;;;;1.96;85.46;96238.25;1795314;80;21010;-70
2022/12/26 06:18:42;;;;;;;17.87;10.07;;;;;;;1.94;85.40;96242.13;1795365;80;21531;-70
2022/12/26 06:21:12;;;;;;;23.10;12.10;;;;;;;1.90;85.43;96240.28;1795170;80;20975;-70
2022/12/26 06:23:40;;;;;;;16.17;8.03;;;;;;;1.92;85.44;96249.45;1795422;80;21014;-70
2022/12/26 06:26:08;;;;;;;15.27;8.57;;;;;;;1.94;85.49;96243.83;1795469;80;21596;-70
2022/12/26 06:28:36;;;;;;;30.13;16.07;;;;;;;1.92;85.28;96242.94;1795342;80;20979;-70
2022/12/26 06:31:10;;;;;;;28.93;15.37;;;;;;;1.94;85.39;96249.03;1795361;80;21009;-70
2022/12/26 06:33:37;;;;;;;19.60;11.30;;;;;;;1.99;85.34;96242.65;1794877;80;20994;-70
2022/12/26 06:36:08;;;;;;;38.33;20.10;;;;;;;1.98;84.15;96246.98;1795205;80;21465;-70
2022/12/26 06:38:35;;;;;;;37.47;20.63;;;;;;;2.03;84.89;96245.80;1795415;80;21021;-70
2022/12/26 06:41:05;;;;;;;29.50;18.23;;;;;;;2.06;84.64;96244.56;1795389;80;21082;-70
2022/12/26 06:43:32;;;;;;;30.93;18.13;;;;;;;2.09;84.80;96250.75;1795389;80;21034;-70
2022/12/26 06:46:00;;;;;;;23.10;12.93;;;;;;;2.09;84.55;96248.14;1795424;80;21106;-70
2022/12/26 06:48:27;;;;;;;24.03;12.47;;;;;;;2.06;84.21;96249.77;1795217;80;20986;-70
2022/12/26 06:50:55;;;;;;;40.60;18.23;;;;;;;2.07;84.65;96247.65;1795277;80;20998;-70
2022/12/26 06:53:24;;;;;;;37.10;19.87;;;;;;;2.06;84.83;96242.84;1795467;80;21480;-70
2022/12/26 06:55:51;;;;;;;27.03;14.73;;;;;;;2.05;84.64;96240.22;1792111;80;21006;-70
2022/12/26 06:58:18;;;;;;;20.37;11.53;;;;;;;2.07;84.66;96233.33;1787245;80;21043;-70
2022/12/26 07:00:44;;;;;;;21.70;12.80;;;;;;;2.10;84.69;96236.88;1787289;80;21453;-70
2022/12/26 07:03:11;;;;;;;18.97;9.40;;;;;;;2.10;84.37;96242.52;1787281;80;20998;-70
2022/12/26 07:05:38;;;;;;;13.83;6.93;;;;;;;2.10;84.56;96237.30;1787009;80;21472;-70
2022/12/26 07:08:05;;;;;;;14.97;8.23;;;;;;;2.14;84.57;96237.42;1787126;80;21481;-71
2022/12/26 07:10:36;;;;;;;15.97;7.90;;;;;;;2.15;84.51;96244.37;1787012;80;20983;-70
2022/12/26 07:13:02;;;;;;;14.17;7.93;;;;;;;2.18;84.45;96240.09;1787132;80;21019;-70
2022/12/26 07:15:30;;;;;;;17.90;10.93;;;;;;;2.22;84.20;96235.00;1787098;80;21083;-70
2022/12/26 07:17:56;;;;;;;59.43;30.77;;;;;;;2.27;84.27;96228.57;1787068;80;20983;-70
2022/12/26 07:20:22;;;;;;;29.70;19.40;;;;;;;2.31;84.29;96236.92;1787265;80;20990;-70
2022/12/26 07:22:49;;;;;;;22.20;14.20;;;;;;;2.34;83.91;96239.20;1786962;80;21081;-70
2022/12/26 07:25:15;;;;;;;33.33;21.47;;;;;;;2.30;83.33;96250.80;1787364;80;21461;-70
2022/12/26 07:27:42;;;;;;;35.53;25.67;;;;;;;2.29;83.59;96256.44;1787238;80;21014;-70
2022/12/26 07:30:10;;;;;;;34.50;19.60;;;;;;;2.34;83.67;96240.90;1786988;80;21002;-70
2022/12/26 07:32:36;;;;;;;33.83;18.97;;;;;;;2.35;83.06;96236.16;1787115;80;21011;-70
2022/12/26 07:35:04;;;;;;;29.27;18.97;;;;;;;2.34;82.59;96246.11;1787241;80;21496;-70
2022/12/26 07:37:30;;;;;;;27.53;19.17;;;;;;;2.36;82.66;96242.69;1786797;80;21002;-70
2022/12/26 07:39:56;;;;;;;44.13;25.47;;;;;;;2.39;83.01;96240.58;1787277;80;20983;-70
2022/12/26 07:42:23;;;;;;;33.60;18.67;;;;;;;2.47;83.24;96235.16;1787230;80;21038;-70
2022/12/26 07:44:49;;;;;;;39.43;20.43;;;;;;;2.52;83.09;96236.53;1787076;80;21508;-70
2022/12/26 07:47:16;;;;;;;23.90;14.53;;;;;;;2.53;82.54;96230.50;1749438;80;21003;-70
2022/12/26 07:49:42;;;;;;;22.40;13.53;;;;;;;2.56;82.42;96225.34;1787222;80;21494;-70
2022/12/26 07:52:09;;;;;;;18.73;12.60;;;;;;;2.59;82.51;96223.67;1786779;80;20983;-70
2022/12/26 07:54:35;;;;;;;21.73;13.97;;;;;;;2.69;82.68;96229.10;1787196;80;21042;-70
2022/12/26 07:57:02;;;;;;;20.67;11.40;;;;;;;2.76;82.56;96231.00;1793028;80;21049;-70
2022/12/26 07:59:28;;;;;;;16.00;9.93;;;;;;;2.80;81.84;96223.72;1795386;80;20971;-70
2022/12/26 08:01:56;;;;;;;19.70;10.73;;;;;;;2.87;81.71;96220.80;1795581;80;21034;-70
2022/12/26 08:04:23;;;;;;;10.43;6.57;;;;;;;2.99;82.38;96208.02;1795522;80;20998;-70
2022/12/26 08:06:49;;;;;;;7.23;4.30;;;;;;;3.12;82.43;96213.06;1795295;80;20995;-70
2022/12/26 08:09:16;;;;;;;7.43;4.10;;;;;;;3.24;82.77;96206.36;1795522;80;21468;-70
2022/12/26 08:11:43;;;;;;;6.80;4.00;;;;;;;3.36;82.35;96207.03;1795353;80;21022;-70
2022/12/26 08:14:12;;;;;;;5.97;3.93;;;;;;;3.40;81.70;96204.95;1795386;80;21563;-70
2022/12/26 08:16:39;;;;;;;5.40;3.70;;;;;;;3.46;81.80;96211.57;1795453;80;21495;-69
2022/12/26 08:19:05;;;;;;;4.50;3.20;;;;;;;3.52;81.24;96211.23;1795232;80;21011;-69
2022/12/26 08:21:31;;;;;;;5.00;3.50;;;;;;;3.59;81.21;96218.32;1795403;80;21481;-70
2022/12/26 08:23:58;;;;;;;6.40;3.73;;;;;;;3.68;81.18;96215.46;1795545;80;21042;-70
2022/12/26 08:26:25;;;;;;;5.97;3.80;;;;;;;3.75;81.22;96209.03;1795347;80;20982;-69
2022/12/26 08:28:52;;;;;;;5.33;3.80;;;;;;;3.83;80.88;96208.33;1795413;80;20983;-69
2022/12/26 08:31:20;;;;;;;6.67;4.37;;;;;;;3.89;80.46;96216.69;1795372;80;21005;-69
2022/12/26 08:33:47;;;;;;;5.47;3.90;;;;;;;3.92;80.03;96208.89;1764378;80;20998;-70
2022/12/26 08:36:18;;;;;;;6.40;4.53;;;;;;;3.94;78.68;96215.03;1795361;80;20998;-70
2022/12/26 08:38:45;;;;;;;6.33;4.13;;;;;;;3.94;78.16;96214.16;1795447;80;21041;-69
2022/12/26 08:41:11;;;;;;;7.00;4.63;;;;;;;3.93;78.49;96202.84;1795174;80;21050;-69
2022/12/26 08:43:38;;;;;;;6.33;3.87;;;;;;;3.97;78.48;96190.27;1795482;80;21006;-69
2022/12/26 08:46:11;;;;;;;5.00;3.50;;;;;;;4.05;79.36;96193.88;1795645;80;21496;-69
2022/12/26 08:48:39;;;;;;;4.83;3.70;;;;;;;4.10;79.23;96192.22;1795541;80;21006;-69
2022/12/26 08:51:14;;;;;;;6.67;3.83;;;;;;;4.11;78.32;96187.47;1795511;80;21465;-69
2022/12/26 08:53:41;;;;;;;11.17;7.70;;;;;;;4.14;78.63;96181.84;1794675;80;21025;-69
2022/12/26 08:56:12;;;;;;;4.57;3.43;;;;;;;4.16;78.26;96194.07;1795123;80;21066;-69
2022/12/26 08:58:40;;;;;;;5.13;3.30;;;;;;;4.20;78.55;96184.53;1795537;80;21468;-69
2022/12/26 09:01:13;;;;;;;13.70;9.43;;;;;;;4.23;78.38;96181.53;1795199;80;20990;-69
2022/12/26 09:03:41;;;;;;;15.63;10.90;;;;;;;4.30;78.72;96182.08;1794739;80;21049;-69
2022/12/26 09:06:10;;;;;;;9.30;4.90;;;;;;;4.31;77.22;96179.94;1795555;80;20986;-69
2022/12/26 09:08:38;;;;;;;24.40;16.27;;;;;;;4.35;77.87;96176.93;1795287;80;21464;-69
2022/12/26 09:11:14;;;;;;;12.57;7.43;;;;;;;4.39;78.04;96176.56;1795395;80;21503;-69
2022/12/26 09:13:42;;;;;;;8.07;5.80;;;;;;;4.44;78.22;96168.36;1795425;80;21002;-69
2022/12/26 09:16:13;;;;;;;7.17;4.80;;;;;;;4.49;77.33;96162.34;1795250;80;21484;-69
2022/12/26 09:18:41;;;;;;;10.50;7.97;;;;;;;4.53;77.61;96154.97;1794880;80;21049;-69
2022/12/26 09:21:10;;;;;;;9.17;6.33;;;;;;;4.61;78.07;96151.19;1795461;80;21002;-69
2022/12/26 09:23:38;;;;;;;6.40;4.50;;;;;;;4.77;78.32;96140.05;1795077;80;21527;-69
2022/12/26 09:26:12;;;;;;;4.97;3.30;;;;;;;5.02;78.63;96143.41;1795423;80;20971;-69
2022/12/26 09:28:40;;;;;;;5.90;3.90;;;;;;;5.15;77.57;96126.55;1795477;80;20979;-69
2022/12/26 09:31:17;;;;;;;6.03;3.90;;;;;;;5.29;75.95;96120.17;1795320;80;21001;-69
2022/12/26 09:33:46;;;;;;;4.83;4.20;;;;;;;5.47;77.19;96127.73;1794685;80;21041;-69
2022/12/26 09:36:17;;;;;;;6.63;4.20;;;;;;;5.57;75.25;96127.86;1795264;80;21061;-69
2022/12/26 09:38:45;;;;;;;6.57;3.97;;;;;;;5.55;75.29;96140.05;1795367;80;21002;-69
2022/12/26 09:41:23;;;;;;;6.10;4.47;;;;;;;5.48;74.90;96144.77;1795360;80;21022;-69
2022/12/26 09:44:10;;;;;;;7.97;4.33;;;;;;;5.38;74.65;96149.47;1795473;80;21014;-69
2022/12/26 09:46:57;;;;;;;7.53;5.17;;;;;;;5.31;75.00;96149.82;1753908;80;21057;-69
2022/12/26 09:49:39;;;;;;;11.70;5.53;;;;;;;5.25;74.98;96155.44;1795247;80;21765;-69
2022/12/26 09:52:13;;;;;;;24.33;15.00;;;;;;;5.14;74.27;96160.13;1721210;80;21007;-69
2022/12/26 09:54:50;;;;;;;10.77;7.43;;;;;;;5.16;75.01;96160.99;1795493;80;21022;-69
2022/12/26 09:57:25;;;;;;;7.87;4.80;;;;;;;5.19;75.60;96170.20;1789560;80;21073;-69
2022/12/26 09:59:56;;;;;;;14.23;9.07;;;;;;;5.23;75.48;96172.85;1786975;80;21006;-69
2022/12/26 10:02:25;;;;;;;15.00;9.77;;;;;;;5.24;75.69;96158.49;1786336;80;20983;-69
2022/12/26 10:04:53;;;;;;;27.00;16.07;;;;;;;5.27;75.51;96163.75;1787094;80;20959;-69
2022/12/26 10:07:44;;;;;;;10.30;6.73;;;;;;;5.28;75.41;96175.09;1786926;80;21010;-69
2022/12/26 10:10:21;;;;;;;13.43;9.50;;;;;;;5.25;75.38;96166.78;1785655;80;21345;-69
2022/12/26 10:13:10;;;;;;;8.33;5.57;;;;;;;5.20;75.25;96171.95;1786964;80;21007;-69
2022/12/26 10:15:51;;;;;;;19.20;12.13;;;;;;;5.20;75.04;96165.84;1786786;80;21019;-69
2022/12/26 10:18:46;;;;;;;19.63;14.40;;;;;;;5.22;75.81;96173.29;1780398;80;21011;-69
2022/12/26 10:21:31;;;;;;;10.05;7.10;;;;;;;5.18;75.12;96140.97;1786656;80;21059;-69
2022/12/26 10:24:09;;;;;;;7.47;5.23;;;;;;;5.17;75.72;96169.31;1786935;80;21034;-69
2022/12/26 10:26:40;;;;;;;8.13;4.77;;;;;;;5.17;75.71;96161.45;1786710;80;21011;-69
2022/12/26 10:29:12;;;;;;;10.10;6.17;;;;;;;5.23;75.94;96157.16;1787303;80;21046;-69
2022/12/26 10:32:14;;;;;;;6.67;5.20;;;;;;;5.23;75.53;96165.00;1786679;80;21472;-69
2022/12/26 10:34:45;;;;;;;8.53;5.63;;;;;;;5.18;74.91;96145.33;1787158;80;21022;-69
2022/12/26 10:37:39;;;;;;;6.97;4.93;;;;;;;5.19;75.97;96156.22;1787095;80;21023;-69
2022/12/26 10:40:19;;;;;;;8.30;5.75;;;;;;;5.17;74.95;96156.23;1785695;80;21015;-69
2022/12/26 10:43:03;;;;;;;10.47;6.97;;;;;;;5.15;75.00;96157.94;1787208;80;21011;-69
2022/12/26 10:45:40;;;;;;;45.30;23.90;;;;;;;5.20;74.99;96142.30;1785000;80;21082;-69
2022/12/26 10:48:11;;;;;;;13.93;7.30;;;;;;;5.51;75.61;96150.47;1785727;80;21011;-69
2022/12/26 10:50:36;;;;;;;23.10;15.17;;;;;;;6.22;73.54;96146.33;1780058;80;21538;-69
2022/12/26 10:53:06;;;;;;;12.63;7.80;;;;;;;6.78;72.66;96147.94;1779897;80;21007;-69
2022/12/26 10:55:34;;;;;;;8.85;6.30;;;;;;;6.99;70.94;96148.06;1780138;80;21469;-69
2022/12/26 10:58:24;;;;;;;9.50;6.15;;;;;;;7.24;69.90;96145.09;1787209;80;21034;-69
2022/12/26 11:00:51;;;;;;;9.55;5.87;;;;;;;7.45;69.33;96144.26;1787269;80;21006;-69
2022/12/26 11:03:21;;;;;;;8.38;5.50;;;;;;;8.03;69.78;96144.33;1754581;80;21490;-67
2022/12/26 11:05:54;;;;;;;7.70;5.10;;;;;;;8.44;68.62;96144.80;1787297;80;20967;-67
2022/12/26 11:08:32;;;;;;;7.12;5.17;;;;;;;8.60;68.24;96146.95;1787174;80;21027;-67
2022/12/26 11:11:22;;;;;;;8.58;6.35;;;;;;;8.65;66.62;96133.34;1786578;80;20991;-66
2022/12/26 11:13:58;;;;;;;12.33;8.68;;;;;;;8.66;64.72;96122.37;1787129;80;21433;-67
2022/12/26 11:16:32;;;;;;;8.73;5.87;;;;;;;9.12;65.64;96123.52;1787245;80;20979;-67
2022/12/26 11:18:58;;;;;;;9.65;6.30;;;;;;;9.84;64.28;96107.30;1778163;80;21011;-67
2022/12/26 11:21:29;;;;;;;7.95;5.35;;;;;;;10.65;63.06;96104.84;1787199;80;20979;-67
2022/12/26 11:24:09;;;;;;;10.55;6.87;;;;;;;11.03;60.13;96085.91;1786948;80;21010;-67
2022/12/26 11:26:37;;;;;;;8.20;5.60;;;;;;;11.46;58.44;96089.30;1782998;80;21046;-67
2022/12/26 11:29:11;;;;;;;7.70;5.70;;;;;;;11.80;59.05;96076.93;1786926;80;21015;-67
2022/12/26 11:31:42;;;;;;;6.20;5.20;;;;;;;12.12;56.14;96077.31;1787157;80;21023;-67
2022/12/26 11:34:16;;;;;;;8.55;6.08;;;;;;;11.99;54.39;96070.91;1787086;80;21011;-67
2022/12/26 11:36:49;;;;;;;6.42;4.90;;;;;;;12.00;56.13;96078.83;1787035;80;20979;-67
2022/12/26 11:39:23;;;;;;;7.65;6.08;;;;;;;12.08;54.62;96072.96;1787297;80;21504;-67
2022/12/26 11:41:51;;;;;;;9.83;7.20;;;;;;;12.13;56.60;96077.72;1786084;80;20995;-67
2022/12/26 11:44:32;;;;;;;10.03;7.72;;;;;;;12.33;56.11;96069.44;1786909;80;21083;-67
2022/12/26 11:47:09;;;;;;;8.20;5.72;;;;;;;12.36;55.50;96071.16;1787316;80;20959;-67
2022/12/26 11:49:50;;;;;;;11.05;9.75;;;;;;;12.07;54.73;96066.36;1787157;80;21019;-69
2022/12/26 11:52:54;;;;;;;5.78;5.08;;;;;;;11.97;56.38;96076.25;1787149;80;21110;-69
2022/12/26 11:55:37;;;;;;;6.40;5.25;;;;;;;11.64;56.03;96073.20;1785244;80;20991;-69
2022/12/26 11:58:13;;;;;;;6.05;5.37;;;;;;;11.20;57.54;96069.86;1786851;80;21110;-69
2022/12/26 12:00:43;;;;;;;8.40;6.20;;;;;;;10.89;58.29;96067.62;1787236;80;21011;-69
2022/12/26 12:03:33;;;;;;;6.22;5.30;;;;;;;10.53;58.63;96064.94;1786042;80;21460;-69
2022/12/26 12:06:32;;;;;;;6.75;5.50;;;;;;;10.23;59.74;96067.00;1787156;80;20995;-69
2022/12/26 12:09:39;;;;;;;6.67;5.25;;;;;;;9.97;60.81;96079.94;1787392;80;20964;-69
2022/12/26 12:12:17;;;;;;;11.90;8.43;;;;;;;9.88;61.06;96072.59;1787115;80;21011;-69
2022/12/26 12:15:03;;;;;;;26.15;20.88;;;;;;;9.95;61.63;96066.34;1787289;80;21034;-69
2022/12/26 12:17:55;;;;;;;9.50;6.95;;;;;;;10.13;61.73;96063.56;1785445;80;21062;-69
2022/12/26 12:20:36;;;;;;;9.18;6.00;;;;;;;10.21;61.57;96063.49;1787068;80;21521;-69
2022/12/26 12:23:11;;;;;;;6.50;5.30;;;;;;;10.43;62.25;96068.57;1786652;80;21007;-69
2022/12/26 12:26:02;;;;;;;7.62;5.67;;;;;;;10.55;60.99;96049.52;1785740;80;20999;-69
2022/12/26 12:29:02;;;;;;;13.20;8.03;;;;;;;10.47;61.05;96054.47;1786469;80;21098;-69
2022/12/26 12:31:56;;;;;;;9.30;8.40;;;;;;;10.33;61.42;96062.51;1787296;80;21453;-69
2022/12/26 12:34:48;;;;;;;8.73;7.00;;;;;;;10.10;61.75;96050.39;1787168;80;21007;-69
2022/12/26 12:37:23;;;;;;;10.03;6.40;;;;;;;10.00;62.56;96048.73;1787177;80;21034;-69
2022/12/26 12:40:45;;;;;;;15.75;12.05;;;;;;;9.96;63.17;96050.53;1785687;80;21027;-69
2022/12/26 12:43:17;;;;;;;8.83;6.53;;;;;;;9.96;63.60;96041.75;1787020;80;21531;-69
2022/12/26 12:46:14;;;;;;;9.15;7.42;;;;;;;9.74;63.75;96043.23;1787132;80;20979;-69
2022/12/26 12:48:46;;;;;;;7.53;6.05;;;;;;;9.57;64.66;96048.21;1787524;80;21002;-69
2022/12/26 12:51:48;;;;;;;9.15;7.42;;;;;;;9.43;65.50;96042.61;1786335;80;21050;-69
2022/12/26 12:54:38;;;;;;;9.60;6.53;;;;;;;9.39;65.83;96040.00;1787082;80;20998;-69
2022/12/26 12:57:31;;;;;;;11.90;8.43;;;;;;;9.38;66.28;96033.87;1786723;80;21454;-69
2022/12/26 13:00:18;;;;;;;10.70;6.90;;;;;;;9.49;66.54;96036.42;1786837;80;21485;-69
2022/12/26 13:02:56;;;;;;;11.85;8.58;;;;;;;9.53;67.05;96035.52;1786430;80;20983;-69
2022/12/26 13:06:07;;;;;;;9.55;7.33;;;;;;;9.53;67.22;96040.34;1787140;80;20995;-69
2022/12/26 13:08:56;;;;;;;7.05;5.62;;;;;;;9.50;67.39;96032.92;1787282;80;20959;-69
2022/12/26 13:11:28;;;;;;;6.65;5.22;;;;;;;9.37;67.45;96029.47;1786860;80;21023;-69
2022/12/26 13:14:08;;;;;;;6.87;5.22;;;;;;;9.29;67.53;96035.23;1787202;80;20994;-69
2022/12/26 13:16:42;;;;;;;7.42;5.25;;;;;;;9.25;67.99;96025.17;1787019;80;21521;-69
2022/12/26 13:19:37;;;;;;;8.10;5.03;;;;;;;9.24;68.30;96024.72;1787176;80;20975;-69
2022/12/26 13:22:12;;;;;;;14.15;8.55;;;;;;;9.27;68.67;96025.15;1786591;80;21051;-69
2022/12/26 13:24:44;;;;;;;10.75;6.20;;;;;;;9.23;69.03;96032.20;1786988;80;20991;-69
2022/12/26 13:27:25;;;;;;;7.90;6.33;;;;;;;9.25;69.85;96034.84;1787114;80;21019;-69
2022/12/26 13:29:52;;;;;;;9.63;6.33;;;;;;;9.21;69.81;96030.02;1787361;80;21026;-69
2022/12/26 13:32:26;;;;;;;6.08;5.08;;;;;;;9.17;69.61;96030.04;1786807;80;21011;-69
2022/12/26 13:34:57;;;;;;;6.78;4.92;;;;;;;9.13;69.89;96031.83;1787018;80;21015;-69
2022/12/26 13:37:53;;;;;;;7.47;5.83;;;;;;;9.08;70.69;96023.95;1787252;80;21007;-69
2022/12/26 13:40:29;;;;;;;23.07;15.70;;;;;;;9.04;71.24;96027.48;1787002;80;20998;-69
2022/12/26 13:46:00;;;;;;;10.03;7.20;;;;;;;8.93;71.81;96039.84;1787259;80;20971;-69
2022/12/26 13:48:32;;;;;;;9.15;6.80;;;;;;;8.87;72.00;96043.38;1787057;80;20956;-69
2022/12/26 13:51:02;;;;;;;4.80;2.30;;;;;;;8.82;72.90;96041.62;1787070;80;20964;-68
2022/12/26 13:53:39;;;;;;;5.30;3.10;;;;;;;9.03;74.23;96038.90;1786926;80;21011;-69
2022/12/26 13:56:21;;;;;;;3.02;1.90;;;;;;;9.23;73.50;96036.16;1787284;80;20995;-69
2022/12/26 13:59:13;;;;;;;2.80;2.40;;;;;;;9.41;73.47;96037.79;1787173;80;21031;-69
2022/12/26 14:02:03;;;;;;;4.05;2.72;;;;;;;9.56;73.20;96043.39;1786768;80;20999;-69
2022/12/26 14:04:47;;;;;;;4.17;2.85;;;;;;;9.54;73.26;96049.11;1784605;80;21003;-69
2022/12/26 14:07:43;;;;;;;3.27;2.27;;;;;;;9.48;73.59;96049.17;1787288;80;21469;-69
2022/12/26 14:10:34;;;;;;;5.90;4.47;;;;;;;9.41;73.64;96042.19;1786901;80;21027;-69
2022/12/26 14:13:49;;;;;;;4.85;3.55;;;;;;;9.31;73.29;96044.87;1787325;80;21046;-69